createdAt,value
2018-12-05T00:00:19.500Z,1.21
2018-12-05T00:01:19.711Z,1.25
2018-12-05T00:02:19.808Z,1.27
2018-12-05T00:03:19.920Z,1.30
2018-12-05T00:04:20.049Z,1.33
2018-12-05T00:05:20.234Z,1.34
2018-12-05T00:06:20.349Z,1.35
2018-12-05T00:07:20.452Z,1.36
2018-12-05T00:08:20.539Z,1.37
2018-12-05T00:09:20.670Z,1.40
2018-12-05T00:10:20.786Z,1.43
2018-12-05T00:11:20.861Z,1.45
2018-12-05T00:12:20.995Z,1.50
2018-12-05T00:13:21.071Z,1.52
2018-12-05T00:14:21.166Z,1.56
2018-12-05T00:15:21.274Z,1.58
2018-12-05T00:16:21.393Z,1.61
2018-12-05T00:17:21.564Z,1.66
2018-12-05T00:18:21.652Z,1.69
2018-12-05T00:19:21.761Z,1.77
2018-12-05T00:20:21.898Z,1.88
2018-12-05T00:21:22.082Z,1.96
2018-12-05T00:22:22.196Z,2.04
2018-12-05T00:23:22.301Z,2.10
2018-12-05T00:24:22.411Z,2.17
2018-12-05T00:25:22.519Z,2.19
2018-12-05T00:26:22.621Z,2.22
2018-12-05T00:27:22.728Z,2.28
2018-12-05T00:28:22.831Z,2.31
2018-12-05T00:29:22.601Z,2.35
2018-12-05T00:30:23.167Z,2.38
2018-12-05T00:31:23.275Z,2.38
2018-12-05T00:32:23.376Z,2.41
2018-12-05T00:33:23.456Z,2.42
2018-12-05T00:34:23.567Z,2.44
2018-12-05T00:35:23.776Z,2.42
2018-12-05T00:36:23.785Z,2.42
2018-12-05T00:37:23.585Z,2.42
2018-12-05T00:38:24.027Z,2.43
2018-12-05T00:39:24.304Z,2.41
2018-12-05T00:40:24.667Z,2.39
2018-12-05T00:41:25.020Z,2.39
2018-12-05T00:42:25.313Z,2.37
2018-12-05T00:43:25.855Z,2.37
2018-12-05T00:44:25.656Z,2.36
2018-12-05T00:45:25.936Z,2.36
2018-12-05T00:46:26.209Z,2.36
2018-12-05T00:47:26.597Z,2.35
2018-12-05T00:48:26.855Z,2.36
2018-12-05T00:49:27.107Z,2.41
2018-12-05T00:50:27.597Z,2.43
2018-12-05T00:51:27.874Z,2.46
2018-12-05T00:52:28.166Z,2.49
2018-12-05T00:53:28.456Z,2.51
2018-12-05T00:54:28.723Z,2.53
2018-12-05T00:55:29.219Z,2.56
2018-12-05T00:56:29.003Z,2.55
2018-12-05T00:57:29.288Z,2.58
2018-12-05T00:58:29.569Z,2.60
2018-12-05T00:59:29.845Z,2.61
2018-12-05T01:00:30.101Z,2.63
2018-12-05T01:01:30.364Z,2.65
2018-12-05T01:02:30.769Z,2.67
2018-12-05T01:03:31.036Z,2.70
2018-12-05T01:04:31.298Z,2.73
2018-12-05T01:05:31.754Z,2.75
2018-12-05T01:06:32.030Z,2.76
2018-12-05T01:07:32.358Z,2.77
2018-12-05T01:08:32.647Z,2.77
2018-12-05T01:09:33.024Z,2.78
2018-12-05T01:10:33.574Z,2.78
2018-12-05T01:11:33.659Z,2.79
2018-12-05T01:12:33.801Z,2.80
2018-12-05T01:13:33.944Z,2.80
2018-12-05T01:14:34.054Z,2.81
2018-12-05T01:15:34.328Z,2.82
2018-12-05T01:16:34.441Z,2.82
2018-12-05T01:17:34.613Z,2.81
2018-12-05T01:18:34.855Z,2.81
2018-12-05T01:19:35.006Z,2.79
2018-12-05T01:20:35.120Z,2.77
2018-12-05T01:21:35.396Z,2.77
2018-12-05T01:22:35.555Z,2.75
2018-12-05T01:23:35.705Z,2.74
2018-12-05T01:24:35.827Z,2.73
2018-12-05T01:25:35.985Z,2.73
2018-12-05T01:26:36.067Z,2.72
2018-12-05T01:27:36.129Z,2.69
2018-12-05T01:28:36.211Z,2.65
2018-12-05T01:29:36.270Z,2.62
2018-12-05T01:30:36.372Z,2.60
2018-12-05T01:31:36.457Z,2.60
2018-12-05T01:32:36.604Z,2.58
2018-12-05T01:33:36.742Z,2.57
2018-12-05T01:34:36.826Z,2.55
2018-12-05T01:35:36.928Z,2.53
2018-12-05T01:36:37.048Z,2.50
2018-12-05T01:37:37.149Z,2.47
2018-12-05T01:38:37.253Z,2.43
2018-12-05T01:39:37.320Z,2.38
2018-12-05T01:40:37.400Z,2.34
2018-12-05T01:41:37.482Z,2.28
2018-12-05T01:42:37.570Z,2.23
2018-12-05T01:43:37.653Z,2.19
2018-12-05T01:44:37.675Z,2.13
2018-12-05T01:45:37.743Z,2.13
2018-12-05T01:46:37.852Z,2.14
2018-12-05T01:47:37.933Z,2.16
2018-12-05T01:48:38.009Z,2.20
2018-12-05T01:49:38.134Z,2.24
2018-12-05T01:50:38.216Z,2.28
2018-12-05T01:51:38.304Z,2.32
2018-12-05T01:52:38.402Z,2.37
2018-12-05T01:53:38.503Z,2.41
2018-12-05T01:54:38.605Z,2.42
2018-12-05T01:55:38.742Z,2.40
2018-12-05T01:56:38.846Z,2.40
2018-12-05T01:57:38.870Z,2.40
2018-12-05T01:58:38.965Z,2.39
2018-12-05T01:59:39.040Z,2.40
2018-12-05T02:00:38.953Z,2.43
2018-12-05T02:01:39.359Z,2.42
2018-12-05T02:02:39.665Z,2.42
2018-12-05T02:03:40.181Z,2.39
2018-12-05T02:04:40.462Z,2.39
2018-12-05T02:05:40.774Z,2.39
2018-12-05T02:06:41.169Z,2.39
2018-12-05T02:07:41.453Z,2.38
2018-12-05T02:08:41.853Z,2.37
2018-12-05T02:10:42.272Z,2.36
2018-12-05T02:11:42.560Z,2.32
2018-12-05T02:12:42.838Z,2.32
2018-12-05T02:13:43.149Z,2.30
2018-12-05T02:14:43.439Z,2.29
2018-12-05T02:15:43.724Z,2.27
2018-12-05T02:16:44.001Z,2.26
2018-12-05T02:17:44.288Z,2.24
2018-12-05T02:18:44.605Z,2.22
2018-12-05T02:19:44.917Z,2.20
2018-12-05T02:20:45.206Z,2.18
2018-12-05T02:21:45.690Z,2.16
2018-12-05T02:22:45.936Z,2.13
2018-12-05T02:23:46.223Z,2.10
2018-12-05T02:24:46.485Z,2.08
2018-12-05T02:25:46.777Z,2.06
2018-12-05T02:26:47.090Z,2.05
2018-12-05T02:27:47.390Z,2.03
2018-12-05T02:28:47.666Z,2.02
2018-12-05T02:29:48.654Z,2.02
2018-12-05T02:30:47.987Z,2.00
2018-12-05T02:32:48.606Z,2.00
2018-12-05T02:33:48.640Z,1.98
2018-12-05T02:34:48.733Z,1.96
2018-12-05T02:35:49.088Z,1.94
2018-12-05T02:36:49.122Z,1.92
2018-12-05T02:37:49.259Z,1.92
2018-12-05T02:38:49.367Z,1.94
2018-12-05T02:39:49.471Z,1.95
2018-12-05T02:40:49.603Z,1.95
2018-12-05T02:41:49.692Z,1.95
2018-12-05T02:42:49.810Z,1.94
2018-12-05T02:43:49.997Z,1.92
2018-12-05T02:44:50.112Z,1.93
2018-12-05T02:45:50.221Z,1.92
2018-12-05T02:46:50.353Z,1.90
2018-12-05T02:47:50.534Z,1.89
2018-12-05T02:48:50.773Z,1.88
2018-12-05T02:49:51.001Z,1.88
2018-12-05T02:50:51.125Z,1.86
2018-12-05T02:51:51.220Z,1.85
2018-12-05T02:52:51.375Z,1.83
2018-12-05T02:53:51.518Z,1.83
2018-12-05T02:54:51.583Z,1.81
2018-12-05T02:55:51.719Z,1.79
2018-12-05T02:56:51.947Z,1.77
2018-12-05T02:57:52.054Z,1.76
2018-12-05T02:59:52.161Z,1.73
2018-12-05T03:00:52.251Z,1.72
2018-12-05T03:01:52.360Z,1.71
2018-12-05T03:02:52.464Z,1.71
2018-12-05T03:03:52.307Z,1.70
2018-12-05T03:04:52.585Z,1.69
2018-12-05T03:05:53.172Z,1.69
2018-12-05T03:06:53.240Z,1.67
2018-12-05T03:07:53.327Z,1.65
2018-12-05T03:08:53.435Z,1.62
2018-12-05T03:09:53.549Z,1.61
2018-12-05T03:10:53.655Z,1.61
2018-12-05T03:11:53.770Z,1.61
2018-12-05T03:12:53.830Z,1.60
2018-12-05T03:13:53.972Z,1.58
2018-12-05T03:14:54.214Z,1.57
2018-12-05T03:15:54.201Z,1.55
2018-12-05T03:16:54.483Z,1.55
2018-12-05T03:17:54.750Z,1.54
2018-12-05T03:18:55.018Z,1.54
2018-12-05T03:19:55.282Z,1.54
2018-12-05T03:20:55.734Z,1.55
2018-12-05T03:21:55.983Z,1.54
2018-12-05T03:22:56.266Z,1.53
2018-12-05T03:23:56.506Z,1.53
2018-12-05T03:24:56.781Z,1.54
2018-12-05T03:25:57.140Z,1.53
2018-12-05T03:26:57.419Z,1.54
2018-12-05T03:28:57.736Z,1.52
2018-12-05T03:29:58.010Z,1.51
2018-12-05T03:30:58.255Z,1.50
2018-12-05T03:31:58.518Z,1.49
2018-12-05T03:32:58.787Z,1.49
2018-12-05T03:33:59.053Z,1.45
2018-12-05T03:34:59.516Z,1.42
2018-12-05T03:35:59.776Z,1.39
2018-12-05T03:37:00.046Z,1.40
2018-12-05T03:38:00.371Z,1.43
2018-12-05T03:39:00.847Z,1.45
2018-12-05T03:40:01.082Z,1.51
2018-12-05T03:41:01.741Z,1.54
2018-12-05T03:42:02.356Z,1.55
2018-12-05T03:43:02.358Z,1.60
2018-12-05T03:44:02.641Z,1.62
2018-12-05T03:45:03.130Z,1.64
2018-12-05T03:46:03.012Z,1.70
2018-12-05T03:47:03.593Z,1.73
2018-12-05T03:48:03.685Z,1.78
2018-12-05T03:49:03.768Z,1.81
2018-12-05T03:50:03.887Z,1.86
2018-12-05T03:51:03.977Z,1.90
2018-12-05T03:52:04.131Z,1.92
2018-12-05T03:53:04.374Z,1.91
2018-12-05T03:54:04.436Z,1.93
2018-12-05T03:55:04.546Z,1.95
2018-12-05T03:56:04.740Z,1.95
2018-12-05T03:57:04.870Z,1.99
2018-12-05T03:58:05.034Z,1.99
2018-12-05T03:59:05.260Z,2.05
2018-12-05T04:00:05.389Z,2.09
2018-12-05T04:01:05.533Z,2.10
2018-12-05T04:02:05.750Z,2.12
2018-12-05T04:03:05.791Z,2.12
2018-12-05T04:04:05.855Z,2.15
2018-12-05T04:05:06.002Z,2.16
2018-12-05T04:06:06.059Z,2.19
2018-12-05T04:07:06.223Z,2.21
2018-12-05T04:08:06.290Z,2.21
2018-12-05T04:09:06.378Z,2.24
2018-12-05T04:10:06.566Z,2.24
2018-12-05T04:11:06.658Z,2.24
2018-12-05T04:12:06.775Z,2.24
2018-12-05T04:13:06.874Z,2.24
2018-12-05T04:14:06.988Z,2.24
2018-12-05T04:15:07.040Z,2.24
2018-12-05T04:16:07.011Z,2.24
2018-12-05T04:17:07.588Z,2.25
2018-12-05T04:18:07.649Z,2.23
2018-12-05T04:19:07.717Z,2.22
2018-12-05T04:20:07.477Z,2.18
2018-12-05T04:21:08.041Z,2.15
2018-12-05T04:22:08.173Z,2.14
2018-12-05T04:23:08.001Z,2.11
2018-12-05T04:24:08.580Z,2.09
2018-12-05T04:25:08.642Z,2.07
2018-12-05T04:26:08.737Z,2.04
2018-12-05T04:27:08.520Z,2.02
2018-12-05T04:28:08.951Z,2.01
2018-12-05T04:29:09.346Z,2.00
2018-12-05T04:30:09.688Z,1.97
2018-12-05T04:31:09.987Z,1.98
2018-12-05T04:32:10.478Z,1.99
2018-12-05T04:33:10.795Z,1.99
2018-12-05T04:34:11.121Z,1.98
2018-12-05T04:35:11.569Z,1.98
2018-12-05T04:36:11.851Z,1.99
2018-12-05T04:37:12.132Z,2.02
2018-12-05T04:38:12.414Z,2.04
2018-12-05T04:39:12.717Z,2.08
2018-12-05T04:40:13.075Z,2.08
2018-12-05T04:41:13.358Z,2.11
2018-12-05T04:42:13.658Z,2.12
2018-12-05T04:43:13.954Z,2.15
2018-12-05T04:44:14.250Z,2.16
2018-12-05T04:45:14.854Z,2.15
2018-12-05T04:46:14.770Z,2.15
2018-12-05T04:47:15.047Z,2.15
2018-12-05T04:48:15.483Z,2.15
2018-12-05T04:50:15.656Z,2.16
2018-12-05T04:51:15.469Z,2.15
2018-12-05T04:52:15.739Z,2.15
2018-12-05T04:53:16.021Z,2.14
2018-12-05T04:54:16.285Z,2.12
2018-12-05T04:55:16.762Z,2.10
2018-12-05T04:56:17.037Z,2.09
2018-12-05T04:57:17.287Z,2.09
2018-12-05T04:58:17.601Z,2.09
2018-12-05T04:59:17.946Z,2.10
2018-12-05T05:00:18.543Z,2.09
2018-12-05T05:01:18.641Z,2.07
2018-12-05T05:02:18.749Z,2.04
2018-12-05T05:03:18.824Z,2.04
2018-12-05T05:04:18.923Z,2.03
2018-12-05T05:05:19.067Z,2.06
2018-12-05T05:06:19.186Z,2.07
2018-12-05T05:07:19.298Z,2.07
2018-12-05T05:08:19.463Z,2.08
2018-12-05T05:09:19.618Z,2.09
2018-12-05T05:10:19.796Z,2.10
2018-12-05T05:11:19.939Z,2.15
2018-12-05T05:12:20.096Z,2.16
2018-12-05T05:13:20.257Z,2.16
2018-12-05T05:14:20.422Z,2.16
2018-12-05T05:15:20.587Z,2.13
2018-12-05T05:16:20.733Z,2.11
2018-12-05T05:17:20.955Z,2.10
2018-12-05T05:18:21.096Z,2.12
2018-12-05T05:19:21.165Z,2.12
2018-12-05T05:20:21.235Z,2.13
2018-12-05T05:21:21.293Z,2.14
2018-12-05T05:22:21.354Z,2.11
2018-12-05T05:23:21.431Z,2.09
2018-12-05T05:24:21.795Z,2.09
2018-12-05T05:25:21.902Z,2.08
2018-12-05T05:26:22.024Z,2.05
2018-12-05T05:27:22.169Z,2.04
2018-12-05T05:28:22.255Z,2.03
2018-12-05T05:29:22.383Z,2.04
2018-12-05T05:30:22.445Z,2.05
2018-12-05T05:31:23.812Z,2.06
2018-12-05T05:32:22.607Z,2.06
2018-12-05T05:33:22.674Z,2.07
2018-12-05T05:34:22.778Z,2.08
2018-12-05T05:35:22.861Z,2.10
2018-12-05T05:36:22.945Z,2.13
2018-12-05T05:37:23.029Z,2.14
2018-12-05T05:38:23.124Z,2.16
2018-12-05T05:39:23.270Z,2.18
2018-12-05T05:40:23.461Z,2.18
2018-12-05T05:41:23.551Z,2.18
2018-12-05T05:42:23.661Z,2.21
2018-12-05T05:43:23.720Z,2.21
2018-12-05T05:44:23.824Z,2.19
2018-12-05T05:45:23.901Z,2.18
2018-12-05T05:46:23.856Z,2.20
2018-12-05T05:47:24.291Z,2.19
2018-12-05T05:48:24.563Z,2.18
2018-12-05T05:49:39.731Z,2.17
2018-12-05T05:50:25.252Z,2.15
2018-12-05T05:51:25.784Z,2.11
2018-12-05T05:52:25.553Z,2.09
2018-12-05T05:53:25.813Z,2.07
2018-12-05T05:54:26.129Z,2.06
2018-12-05T05:55:26.640Z,2.04
2018-12-05T05:56:26.924Z,2.01
2018-12-05T05:57:27.225Z,2.00
2018-12-05T05:58:27.524Z,2.00
2018-12-05T05:59:27.873Z,1.98
2018-12-05T06:00:28.162Z,1.96
2018-12-05T06:01:28.627Z,1.92
2018-12-05T06:02:28.921Z,1.89
2018-12-05T06:03:29.182Z,1.87
2018-12-05T06:04:29.447Z,1.84
2018-12-05T06:05:29.769Z,1.81
2018-12-05T06:06:33.747Z,1.79
2018-12-05T06:07:30.825Z,1.79
2018-12-05T06:08:30.609Z,1.78
2018-12-05T06:09:30.885Z,1.77
2018-12-05T06:10:31.481Z,1.79
2018-12-05T06:11:31.354Z,1.80
2018-12-05T06:12:31.671Z,1.81
2018-12-05T06:13:31.960Z,1.80
2018-12-05T06:14:32.234Z,1.81
2018-12-05T06:15:32.538Z,1.87
2018-12-05T06:16:32.858Z,1.89
2018-12-05T06:17:33.354Z,1.93
2018-12-05T06:18:33.907Z,1.97
2018-12-05T06:19:34.064Z,1.97
2018-12-05T06:20:34.216Z,1.98
2018-12-05T06:21:34.860Z,1.99
2018-12-05T06:22:34.566Z,2.01
2018-12-05T06:23:34.739Z,2.04
2018-12-05T06:24:34.855Z,2.06
2018-12-05T06:25:35.058Z,2.05
2018-12-05T06:26:35.182Z,2.04
2018-12-05T06:27:35.314Z,2.05
2018-12-05T06:28:35.470Z,2.06
2018-12-05T06:29:35.608Z,2.07
2018-12-05T06:30:35.811Z,2.10
2018-12-05T06:31:35.901Z,2.13
2018-12-05T06:32:36.040Z,2.15
2018-12-05T06:33:36.173Z,2.17
2018-12-05T06:34:36.242Z,2.17
2018-12-05T06:35:36.368Z,2.19
2018-12-05T06:36:36.449Z,2.23
2018-12-05T06:37:36.604Z,2.27
2018-12-05T06:38:36.699Z,2.29
2018-12-05T06:39:36.788Z,2.34
2018-12-05T06:40:36.935Z,2.36
2018-12-05T06:41:37.060Z,2.36
2018-12-05T06:42:37.172Z,2.38
2018-12-05T06:43:37.250Z,2.40
2018-12-05T06:44:37.374Z,2.43
2018-12-05T06:45:37.543Z,2.47
2018-12-05T06:46:37.640Z,2.47
2018-12-05T06:47:37.766Z,2.49
2018-12-05T06:48:37.846Z,2.51
2018-12-05T06:49:37.958Z,2.53
2018-12-05T06:50:38.082Z,2.55
2018-12-05T06:51:38.180Z,2.56
2018-12-05T06:52:38.288Z,2.57
2018-12-05T06:53:38.397Z,2.57
2018-12-05T06:54:38.483Z,2.59
2018-12-05T06:55:39.280Z,2.60
2018-12-05T06:56:38.791Z,2.61
2018-12-05T06:57:38.887Z,2.60
2018-12-05T06:58:38.956Z,2.61
2018-12-05T06:59:38.964Z,2.60
2018-12-05T07:00:39.163Z,2.60
2018-12-05T07:01:39.130Z,2.60
2018-12-05T07:02:39.422Z,2.60
2018-12-05T07:03:39.728Z,2.59
2018-12-05T07:04:40.256Z,2.59
2018-12-05T07:05:40.206Z,2.57
2018-12-05T07:06:40.664Z,2.55
2018-12-05T07:07:41.068Z,2.54
2018-12-05T07:08:41.394Z,2.53
2018-12-05T07:09:42.029Z,2.53
2018-12-05T07:10:41.952Z,2.57
2018-12-05T07:11:42.260Z,2.58
2018-12-05T07:13:43.016Z,2.61
2018-12-05T07:14:43.442Z,2.61
2018-12-05T07:15:43.757Z,2.60
2018-12-05T07:16:44.057Z,2.59
2018-12-05T07:17:44.347Z,2.61
2018-12-05T07:18:44.627Z,2.65
2018-12-05T07:19:44.924Z,2.67
2018-12-05T07:20:45.254Z,2.69
2018-12-05T07:21:45.586Z,2.70
2018-12-05T07:22:45.949Z,2.71
2018-12-05T07:23:46.202Z,2.72
2018-12-05T07:24:46.462Z,2.75
2018-12-05T07:25:46.763Z,2.78
2018-12-05T07:26:47.024Z,2.81
2018-12-05T07:27:47.290Z,2.83
2018-12-05T07:28:47.639Z,2.86
2018-12-05T07:29:48.153Z,2.88
2018-12-05T07:30:48.050Z,2.91
2018-12-05T07:31:48.692Z,2.94
2018-12-05T07:32:48.808Z,3.07
2018-12-05T07:33:48.947Z,3.10
2018-12-05T07:34:49.235Z,3.12
2018-12-05T07:35:49.468Z,3.13
2018-12-05T07:36:49.634Z,3.14
2018-12-05T07:37:49.764Z,3.14
2018-12-05T07:38:49.910Z,3.16
2018-12-05T07:40:50.196Z,3.19
2018-12-05T07:41:50.347Z,3.20
2018-12-05T07:42:50.496Z,3.22
2018-12-05T07:43:50.626Z,3.24
2018-12-05T07:44:50.784Z,3.26
2018-12-05T07:45:50.921Z,3.27
2018-12-05T07:46:51.008Z,3.28
2018-12-05T07:47:51.096Z,3.30
2018-12-05T07:48:51.355Z,3.31
2018-12-05T07:49:51.475Z,3.33
2018-12-05T07:50:51.571Z,3.34
2018-12-05T07:51:51.662Z,3.35
2018-12-05T07:52:51.806Z,3.37
2018-12-05T07:53:51.919Z,3.38
2018-12-05T07:54:52.061Z,3.39
2018-12-05T07:55:52.312Z,3.41
2018-12-05T07:56:52.338Z,3.42
2018-12-05T07:57:52.413Z,3.44
2018-12-05T07:58:52.479Z,3.46
2018-12-05T07:59:52.596Z,3.47
2018-12-05T08:00:52.706Z,3.49
2018-12-05T08:01:52.890Z,3.51
2018-12-05T08:02:52.965Z,3.52
2018-12-05T08:03:53.041Z,3.53
2018-12-05T08:04:53.109Z,3.55
2018-12-05T08:05:53.202Z,3.56
2018-12-05T08:06:53.270Z,3.56
2018-12-05T08:07:53.357Z,3.58
2018-12-05T08:08:53.439Z,3.59
2018-12-05T08:10:53.637Z,3.60
2018-12-05T08:11:53.677Z,3.61
2018-12-05T08:12:53.761Z,3.63
2018-12-05T08:13:53.985Z,3.64
2018-12-05T08:14:53.980Z,3.65
2018-12-05T08:15:54.544Z,3.67
2018-12-05T08:16:54.528Z,3.68
2018-12-05T08:17:54.833Z,3.70
2018-12-05T08:18:55.282Z,3.72
2018-12-05T08:19:55.677Z,3.74
2018-12-05T08:20:55.991Z,3.76
2018-12-05T08:21:56.326Z,3.79
2018-12-05T08:22:56.792Z,3.81
2018-12-05T08:23:57.101Z,3.83
2018-12-05T08:24:57.380Z,3.84
2018-12-05T08:25:57.694Z,3.87
2018-12-05T08:26:58.064Z,3.90
2018-12-05T08:27:58.457Z,3.93
2018-12-05T08:28:58.761Z,3.95
2018-12-05T08:29:59.087Z,3.97
2018-12-05T08:30:59.399Z,4.00
2018-12-05T08:31:59.662Z,4.02
2018-12-05T08:32:59.994Z,4.04
2018-12-05T08:34:00.519Z,4.05
2018-12-05T08:35:00.340Z,4.07
2018-12-05T08:36:00.672Z,4.08
2018-12-05T08:37:01.252Z,4.10
2018-12-05T08:38:01.329Z,4.10
2018-12-05T08:39:01.367Z,4.11
2018-12-05T08:40:01.604Z,4.12
2018-12-05T08:41:01.395Z,4.14
2018-12-05T08:42:01.923Z,4.15
2018-12-05T08:43:02.042Z,4.15
2018-12-05T08:44:02.094Z,4.16
2018-12-05T08:45:02.265Z,4.16
2018-12-05T08:46:02.419Z,4.17
2018-12-05T08:47:02.419Z,4.19
2018-12-05T08:48:02.512Z,4.21
2018-12-05T08:49:02.538Z,4.23
2018-12-05T08:50:02.634Z,4.25
2018-12-05T08:51:03.009Z,4.27
2018-12-05T08:52:02.744Z,4.32
2018-12-05T08:53:03.363Z,4.36
2018-12-05T08:54:03.498Z,4.43
2018-12-05T08:55:03.623Z,4.49
2018-12-05T08:56:03.774Z,4.56
2018-12-05T08:57:03.895Z,4.60
2018-12-05T08:58:04.059Z,4.63
2018-12-05T08:59:04.208Z,4.66
2018-12-05T09:00:04.402Z,4.68
2018-12-05T09:01:04.524Z,4.69
2018-12-05T09:02:05.143Z,4.71
2018-12-05T09:03:05.302Z,4.72
2018-12-05T09:04:05.470Z,4.73
2018-12-05T09:05:05.612Z,4.74
2018-12-05T09:06:05.788Z,4.76
2018-12-05T09:07:05.930Z,4.77
2018-12-05T09:08:06.063Z,4.78
2018-12-05T09:09:06.213Z,4.79
2018-12-05T09:10:06.332Z,4.79
2018-12-05T09:11:06.506Z,4.79
2018-12-05T09:12:06.693Z,4.79
2018-12-05T09:13:06.809Z,4.79
2018-12-05T09:14:06.960Z,4.80
2018-12-05T09:15:07.261Z,4.81
2018-12-05T09:16:07.208Z,4.82
2018-12-05T09:17:07.324Z,4.80
2018-12-05T09:18:07.394Z,4.80
2018-12-05T09:19:07.327Z,4.79
2018-12-05T09:20:07.787Z,4.80
2018-12-05T09:21:08.358Z,4.81
2018-12-05T09:22:08.414Z,4.82
2018-12-05T09:23:08.520Z,4.84
2018-12-05T09:24:08.639Z,4.86
2018-12-05T09:25:08.731Z,4.88
2018-12-05T09:26:08.686Z,4.90
2018-12-05T09:27:08.851Z,4.92
2018-12-05T09:28:08.961Z,4.93
2018-12-05T09:29:08.964Z,4.94
2018-12-05T09:30:09.082Z,4.95
2018-12-05T09:31:09.155Z,4.96
2018-12-05T09:32:08.898Z,4.96
2018-12-05T09:33:09.416Z,4.98
2018-12-05T09:34:10.097Z,5.00
2018-12-05T09:35:10.153Z,5.00
2018-12-05T09:36:09.932Z,5.02
2018-12-05T09:37:10.264Z,5.03
2018-12-05T09:38:10.538Z,5.05
2018-12-05T09:39:11.072Z,5.08
2018-12-05T09:40:11.060Z,5.10
2018-12-05T09:41:11.430Z,5.13
2018-12-05T09:42:11.761Z,5.16
2018-12-05T09:43:12.184Z,5.18
2018-12-05T09:44:12.457Z,5.20
2018-12-05T09:45:12.852Z,5.22
2018-12-05T09:46:13.146Z,5.24
2018-12-05T09:47:16.020Z,5.26
2018-12-05T09:48:13.727Z,5.28
2018-12-05T09:49:13.984Z,5.32
2018-12-05T09:50:14.307Z,5.34
2018-12-05T09:51:14.630Z,5.37
2018-12-05T09:52:14.938Z,5.41
2018-12-05T09:53:15.292Z,5.44
2018-12-05T09:54:15.597Z,5.49
2018-12-05T09:55:16.263Z,5.52
2018-12-05T09:56:16.075Z,5.54
2018-12-05T09:57:16.365Z,5.55
2018-12-05T09:58:16.711Z,5.56
2018-12-05T09:59:17.132Z,5.56
2018-12-05T10:00:17.706Z,5.57
2018-12-05T10:01:17.492Z,5.58
2018-12-05T10:02:17.818Z,5.60
2018-12-05T10:03:18.313Z,5.61
2018-12-05T10:04:18.935Z,5.62
2018-12-05T10:05:19.059Z,5.62
2018-12-05T10:06:19.194Z,5.62
2018-12-05T10:07:19.369Z,5.63
2018-12-05T10:08:19.520Z,5.64
2018-12-05T10:09:19.698Z,5.66
2018-12-05T10:10:19.835Z,5.68
2018-12-05T10:11:19.994Z,5.69
2018-12-05T10:12:20.155Z,5.71
2018-12-05T10:13:20.325Z,5.74
2018-12-05T10:14:20.472Z,5.77
2018-12-05T10:15:20.634Z,5.80
2018-12-05T10:16:20.817Z,5.84
2018-12-05T10:17:20.950Z,5.89
2018-12-05T10:18:21.007Z,5.92
2018-12-05T10:19:21.082Z,5.95
2018-12-05T10:20:21.182Z,5.98
2018-12-05T10:21:21.267Z,6.01
2018-12-05T10:22:21.345Z,6.04
2018-12-05T10:23:21.416Z,6.07
2018-12-05T10:24:21.571Z,6.11
2018-12-05T10:25:21.669Z,6.13
2018-12-05T10:26:21.778Z,6.16
2018-12-05T10:27:21.881Z,6.17
2018-12-05T10:28:21.976Z,6.19
2018-12-05T10:29:22.103Z,6.21
2018-12-05T10:30:22.176Z,6.23
2018-12-05T10:31:22.276Z,6.24
2018-12-05T10:32:22.345Z,6.25
2018-12-05T10:33:22.450Z,6.26
2018-12-05T10:34:22.548Z,6.27
2018-12-05T10:35:22.673Z,6.27
2018-12-05T10:37:22.767Z,6.27
2018-12-05T10:38:22.853Z,6.27
2018-12-05T10:39:22.937Z,6.26
2018-12-05T10:40:23.002Z,6.24
2018-12-05T10:41:23.154Z,6.24
2018-12-05T10:42:23.248Z,6.24
2018-12-05T10:43:23.324Z,6.24
2018-12-05T10:44:23.481Z,6.24
2018-12-05T10:45:23.678Z,6.24
2018-12-05T10:46:23.776Z,6.24
2018-12-05T10:47:23.508Z,6.22
2018-12-05T10:48:24.085Z,6.22
2018-12-05T10:49:24.008Z,6.21
2018-12-05T10:50:24.261Z,6.21
2018-12-05T10:51:24.530Z,6.21
2018-12-05T10:52:24.794Z,6.22
2018-12-05T10:53:25.068Z,6.23
2018-12-05T10:54:25.419Z,6.25
2018-12-05T10:55:25.744Z,6.26
2018-12-05T10:56:26.022Z,6.26
2018-12-05T10:57:26.349Z,6.25
2018-12-05T10:58:26.683Z,6.24
2018-12-05T10:59:26.989Z,6.24
2018-12-05T11:00:27.263Z,6.23
2018-12-05T11:01:27.695Z,6.23
2018-12-05T11:02:28.138Z,6.23
2018-12-05T11:03:28.762Z,6.22
2018-12-05T11:04:29.184Z,6.23
2018-12-05T11:05:29.138Z,6.22
2018-12-05T11:06:29.548Z,6.21
2018-12-05T11:07:29.979Z,6.20
2018-12-05T11:08:30.461Z,6.19
2018-12-05T11:09:30.410Z,6.18
2018-12-05T11:10:30.852Z,6.17
2018-12-05T11:11:31.526Z,6.18
2018-12-05T11:12:31.454Z,6.17
2018-12-05T11:13:32.132Z,6.17
2018-12-05T11:14:32.273Z,6.18
2018-12-05T11:15:32.213Z,6.18
2018-12-05T11:16:32.628Z,6.18
2018-12-05T11:17:32.669Z,6.18
2018-12-05T11:18:33.016Z,6.19
2018-12-05T11:19:33.613Z,6.20
2018-12-05T11:20:33.902Z,6.21
2018-12-05T11:21:34.200Z,6.22
2018-12-05T11:22:34.450Z,6.23
2018-12-05T11:23:34.724Z,6.24
2018-12-05T11:24:34.992Z,6.25
2018-12-05T11:25:35.187Z,6.25
2018-12-05T11:26:35.400Z,6.25
2018-12-05T11:27:35.702Z,6.24
2018-12-05T11:28:35.767Z,6.22
2018-12-05T11:29:35.871Z,6.20
2018-12-05T11:30:35.964Z,6.18
2018-12-05T11:32:36.052Z,6.16
2018-12-05T11:33:36.118Z,6.15
2018-12-05T11:34:36.187Z,6.15
2018-12-05T11:35:36.343Z,6.15
2018-12-05T11:36:36.370Z,6.15
2018-12-05T11:37:36.484Z,6.16
2018-12-05T11:38:36.585Z,6.17
2018-12-05T11:39:36.771Z,6.17
2018-12-05T11:40:36.887Z,6.18
2018-12-05T11:41:36.994Z,6.18
2018-12-05T11:42:37.195Z,6.20
2018-12-05T11:43:37.320Z,6.21
2018-12-05T11:44:37.439Z,6.22
2018-12-05T11:45:37.521Z,6.23
2018-12-05T11:46:37.630Z,6.24
2018-12-05T11:47:37.709Z,6.25
2018-12-05T11:48:37.791Z,6.24
2018-12-05T11:49:37.912Z,6.23
2018-12-05T11:50:37.682Z,6.22
2018-12-05T11:51:38.282Z,6.22
2018-12-05T11:52:38.371Z,6.22
2018-12-05T11:53:38.452Z,6.23
2018-12-05T11:54:38.613Z,6.23
2018-12-05T11:55:38.888Z,6.24
2018-12-05T11:56:39.029Z,6.24
2018-12-05T11:57:39.085Z,6.24
2018-12-05T11:58:39.138Z,6.24
2018-12-05T11:59:39.265Z,6.23
2018-12-05T12:00:39.093Z,6.22
2018-12-05T12:01:39.553Z,6.21
2018-12-05T12:02:39.841Z,6.20
2018-12-05T12:03:40.161Z,6.19
2018-12-05T12:04:40.649Z,6.18
2018-12-05T12:05:40.491Z,6.18
2018-12-05T12:06:40.836Z,6.19
2018-12-05T12:07:41.118Z,6.19
2018-12-05T12:08:41.613Z,6.18
2018-12-05T12:09:42.259Z,6.17
2018-12-05T12:10:42.156Z,6.16
2018-12-05T12:11:42.656Z,6.15
2018-12-05T12:12:42.968Z,6.15
2018-12-05T12:13:43.433Z,6.13
2018-12-05T12:14:43.719Z,6.12
2018-12-05T12:15:44.078Z,6.11
2018-12-05T12:16:44.346Z,6.11
2018-12-05T12:17:44.648Z,6.11
2018-12-05T12:18:44.944Z,6.12
2018-12-05T12:19:45.239Z,6.14
2018-12-05T12:20:45.663Z,6.15
2018-12-05T12:21:45.947Z,6.16
2018-12-05T12:22:46.243Z,6.18
2018-12-05T12:23:46.509Z,6.18
2018-12-05T12:24:46.803Z,6.18
2018-12-05T12:25:47.136Z,6.17
2018-12-05T12:26:47.705Z,6.17
2018-12-05T12:27:47.539Z,6.16
2018-12-05T12:28:48.163Z,6.17
2018-12-05T12:29:48.180Z,6.18
2018-12-05T12:30:48.753Z,6.19
2018-12-05T12:31:48.877Z,6.20
2018-12-05T12:32:49.033Z,6.21
2018-12-05T12:33:49.172Z,6.21
2018-12-05T12:34:49.307Z,6.21
2018-12-05T12:35:49.466Z,6.21
2018-12-05T12:36:49.629Z,6.21
2018-12-05T12:37:49.811Z,6.20
2018-12-05T12:38:49.945Z,6.20
2018-12-05T12:39:50.170Z,6.19
2018-12-05T12:40:50.415Z,6.19
2018-12-05T12:41:50.627Z,6.19
2018-12-05T12:42:50.839Z,6.20
2018-12-05T12:43:50.960Z,6.20
2018-12-05T12:44:51.178Z,6.21
2018-12-05T12:45:51.357Z,6.22
2018-12-05T12:46:51.491Z,6.23
2018-12-05T12:47:51.692Z,6.25
2018-12-05T12:48:51.848Z,6.27
2018-12-05T12:49:52.344Z,6.28
2018-12-05T12:50:52.466Z,6.29
2018-12-05T12:51:52.844Z,6.31
2018-12-05T12:52:53.222Z,6.32
2018-12-05T12:54:53.735Z,6.36
2018-12-05T12:55:53.793Z,6.39
2018-12-05T12:56:53.844Z,6.42
2018-12-05T12:58:53.925Z,6.45
2018-12-05T12:59:53.950Z,6.50
2018-12-05T13:00:54.039Z,6.55
2018-12-05T13:01:53.974Z,6.59
2018-12-05T13:02:54.240Z,6.63
2018-12-05T13:03:54.665Z,6.67
2018-12-05T13:04:55.202Z,6.68
2018-12-05T13:05:54.973Z,6.70
2018-12-05T13:06:55.222Z,6.71
2018-12-05T13:07:55.492Z,6.73
2018-12-05T13:08:55.969Z,6.78
2018-12-05T13:09:56.280Z,6.84
2018-12-05T13:10:56.527Z,6.90
2018-12-05T13:11:56.821Z,7.00
2018-12-05T13:12:57.089Z,7.21
2018-12-05T13:13:57.411Z,7.47
2018-12-05T13:15:57.875Z,7.66
2018-12-05T13:16:58.147Z,7.83
2018-12-05T13:17:58.545Z,8.02
2018-12-05T13:18:58.827Z,8.23
2018-12-05T13:19:59.087Z,8.41
2018-12-05T13:20:59.360Z,8.59
2018-12-05T13:21:59.626Z,8.84
2018-12-05T13:23:00.039Z,9.10
2018-12-05T13:24:00.363Z,9.36
2018-12-05T13:25:00.704Z,9.58
2018-12-05T13:26:01.088Z,9.79
2018-12-05T13:27:01.346Z,10.01
2018-12-05T13:28:01.804Z,10.20
2018-12-05T13:29:02.393Z,10.37
2018-12-05T13:30:02.459Z,10.47
2018-12-05T13:31:02.713Z,10.54
2018-12-05T13:32:02.789Z,10.65
2018-12-05T13:33:02.643Z,10.80
2018-12-05T13:34:03.118Z,10.95